Time;durP1;ratioP1;P1;durP2;ratioP2;P2;SDS_P1;SDS_P2;PMS_P1;PMS_P2;Temp;Humidity;BMP_temperature;BMP_pressure;BME280_temperature;BME280_humidity;BME280_pressure;Samples;Min_cycle;Max_cycle;Signal;HPM_P1;HPM_P2
2023/08/28 00:00:33;;;;;;;3.93;2.70;;;18.70;99.90;;;;;;4942294;28;20191;-74
2023/08/28 00:02:58;;;;;;;6.53;3.47;;;18.70;99.90;;;;;;4940161;28;20446;-74
2023/08/28 00:05:24;;;;;;;4.07;2.60;;;18.70;99.90;;;;;;4941744;28;20258;-74
2023/08/28 00:07:50;;;;;;;4.03;2.50;;;18.60;99.90;;;;;;4940105;28;20183;-74
2023/08/28 00:10:15;;;;;;;5.10;2.80;;;18.60;99.90;;;;;;4941793;28;20720;-75
2023/08/28 00:12:42;;;;;;;3.60;2.70;;;18.60;99.90;;;;;;4945396;28;20552;-75
2023/08/28 00:15:08;;;;;;;3.10;2.43;;;18.60;99.90;;;;;;4937406;28;20203;-75
2023/08/28 00:17:34;;;;;;;3.60;2.83;;;18.60;99.90;;;;;;4944218;28;20423;-75
2023/08/28 00:19:59;;;;;;;4.93;3.10;;;18.60;99.90;;;;;;4943357;28;20411;-74
2023/08/28 00:22:25;;;;;;;4.73;3.00;;;18.70;99.90;;;;;;4944470;28;20238;-74
2023/08/28 00:24:51;;;;;;;3.50;2.60;;;18.70;99.90;;;;;;4939198;28;20225;-75
2023/08/28 00:27:16;;;;;;;4.43;2.67;;;18.70;99.90;;;;;;4942767;28;20194;-75
2023/08/28 00:29:42;;;;;;;2.37;2.13;;;18.70;99.90;;;;;;4937841;28;20183;-74
2023/08/28 00:32:07;;;;;;;3.93;2.57;;;18.60;99.90;;;;;;4942934;28;21723;-73
2023/08/28 00:34:33;;;;;;;4.20;3.27;;;18.60;99.90;;;;;;4938670;28;20717;-74
2023/08/28 00:36:58;;;;;;;3.87;3.00;;;18.60;99.90;;;;;;4935920;28;20501;-73
2023/08/28 00:39:24;;;;;;;3.10;2.70;;;18.60;99.90;;;;;;4939486;28;20199;-74
2023/08/28 00:41:49;;;;;;;5.83;2.90;;;18.60;99.90;;;;;;4942206;28;20646;-74
2023/08/28 00:44:15;;;;;;;6.00;2.77;;;18.60;99.90;;;;;;4940048;28;20620;-73
2023/08/28 00:46:41;;;;;;;3.30;2.47;;;18.50;99.90;;;;;;4944351;28;20630;-73
2023/08/28 00:49:08;;;;;;;3.83;2.50;;;18.50;99.90;;;;;;4940026;28;20190;-74
2023/08/28 00:51:33;;;;;;;3.53;2.77;;;18.50;99.90;;;;;;4940173;28;20355;-74
2023/08/28 00:53:59;;;;;;;2.90;2.57;;;18.50;99.90;;;;;;4938117;28;20442;-74
2023/08/28 00:56:24;;;;;;;3.80;2.53;;;18.50;99.90;;;;;;4943366;28;20254;-74
2023/08/28 00:58:50;;;;;;;3.87;2.83;;;18.50;99.90;;;;;;4939844;28;20195;-74
2023/08/28 01:01:16;;;;;;;3.17;2.87;;;18.60;99.90;;;;;;4928798;29;20197;-74
2023/08/28 01:03:42;;;;;;;7.53;3.27;;;18.60;99.90;;;;;;4939219;28;20204;-74
2023/08/28 01:06:18;;;;;;;6.40;3.23;;;18.60;99.90;;;;;;4944242;28;20222;-75
2023/08/28 01:08:58;;;;;;;3.90;2.90;;;18.50;99.90;;;;;;4937881;28;20694;-75
2023/08/28 01:11:53;;;;;;;4.30;2.97;;;18.50;99.90;;;;;;4939566;28;20450;-74
2023/08/28 01:14:25;;;;;;;3.63;2.70;;;18.60;99.90;;;;;;4942001;28;20462;-75
2023/08/28 01:16:53;;;;;;;3.80;2.77;;;18.50;99.90;;;;;;4939238;28;20802;-74
2023/08/28 01:19:36;;;;;;;3.90;3.10;;;18.50;99.90;;;;;;4944182;28;21045;-74
2023/08/28 01:22:25;;;;;;;4.00;3.00;;;18.40;99.90;;;;;;4943442;28;20438;-74
2023/08/28 01:24:55;;;;;;;4.07;2.87;;;18.50;99.90;;;;;;4938177;28;20642;-74
2023/08/28 01:27:22;;;;;;;3.13;2.50;;;18.40;99.90;;;;;;4940731;28;20518;-74
2023/08/28 01:30:12;;;;;;;3.27;2.80;;;18.40;99.90;;;;;;4937420;28;20447;-74
2023/08/28 01:32:39;;;;;;;3.90;2.80;;;18.50;99.90;;;;;;4937066;28;20439;-74
2023/08/28 01:35:26;;;;;;;3.73;3.00;;;18.50;99.90;;;;;;4937219;28;20477;-74
2023/08/28 01:38:13;;;;;;;3.93;2.97;;;18.40;99.90;;;;;;4937626;28;20506;-74
2023/08/28 01:41:07;;;;;;;6.17;5.10;;;18.20;99.90;;;;;;4938767;28;20937;-74
2023/08/28 01:43:38;;;;;;;4.10;3.20;;;18.20;99.90;;;;;;4943608;28;20498;-74
2023/08/28 01:46:05;;;;;;;4.80;3.10;;;18.20;99.90;;;;;;4939812;28;20549;-74
2023/08/28 01:48:33;;;;;;;4.10;3.13;;;18.30;99.90;;;;;;4942378;28;20457;-74
2023/08/28 01:50:59;;;;;;;5.90;3.30;;;18.20;99.90;;;;;;4940488;28;20475;-74
2023/08/28 01:53:26;;;;;;;5.27;3.60;;;18.20;99.90;;;;;;4938886;28;20941;-74
2023/08/28 01:56:06;;;;;;;5.57;2.97;;;18.20;99.90;;;;;;4938833;28;20709;-75
2023/08/28 01:58:36;;;;;;;7.23;3.47;;;18.20;99.90;;;;;;4935365;28;20509;-74
2023/08/28 02:01:01;;;;;;;3.57;2.70;;;18.20;99.90;;;;;;4938162;28;20446;-74
2023/08/28 02:03:31;;;;;;;5.40;3.40;;;18.20;99.90;;;;;;4931046;28;20659;-74
2023/08/28 02:05:57;;;;;;;4.80;3.10;;;18.20;99.90;;;;;;4937673;28;20306;-74
2023/08/28 02:08:23;;;;;;;3.47;3.00;;;18.30;99.90;;;;;;4937150;28;20442;-74
2023/08/28 02:10:48;;;;;;;3.80;3.23;;;18.40;99.90;;;;;;4939020;28;20192;-74
2023/08/28 02:13:14;;;;;;;7.13;3.33;;;18.40;99.90;;;;;;4940674;28;20535;-74
2023/08/28 02:15:40;;;;;;;5.40;3.20;;;18.40;99.90;;;;;;4937843;28;21039;-73
2023/08/28 02:18:06;;;;;;;4.37;3.33;;;18.40;99.90;;;;;;4939993;28;20195;-73
2023/08/28 02:20:32;;;;;;;4.83;3.30;;;18.40;99.90;;;;;;4939033;28;20214;-74
2023/08/28 02:22:58;;;;;;;3.37;2.80;;;18.40;99.90;;;;;;4935999;28;20442;-73
2023/08/28 02:25:23;;;;;;;3.53;2.70;;;18.30;99.90;;;;;;4933020;28;20603;-74
2023/08/28 02:27:49;;;;;;;5.80;3.33;;;18.30;99.90;;;;;;4940484;28;20450;-73
2023/08/28 02:30:17;;;;;;;5.37;3.30;;;18.30;99.90;;;;;;4938940;28;20278;-73
2023/08/28 02:32:43;;;;;;;5.60;3.77;;;18.30;99.90;;;;;;4939542;28;20439;-74
2023/08/28 02:35:09;;;;;;;4.37;3.60;;;18.30;99.90;;;;;;4938560;28;20550;-73
2023/08/28 02:37:35;;;;;;;7.97;3.30;;;18.30;99.90;;;;;;4937948;28;20470;-73
2023/08/28 02:40:00;;;;;;;3.93;3.53;;;18.20;99.90;;;;;;4943138;28;20434;-73
2023/08/28 02:42:26;;;;;;;9.50;3.60;;;18.20;99.90;;;;;;4940574;28;20211;-73
2023/08/28 02:44:51;;;;;;;6.00;3.50;;;18.20;99.90;;;;;;4946199;28;20681;-73
2023/08/28 02:47:17;;;;;;;5.07;3.60;;;18.30;99.90;;;;;;4940060;28;20191;-74
2023/08/28 02:49:43;;;;;;;5.70;3.67;;;18.30;99.90;;;;;;4945862;28;20230;-74
2023/08/28 02:52:08;;;;;;;5.00;3.97;;;18.30;99.90;;;;;;4960231;28;20310;-74
2023/08/28 02:54:34;;;;;;;5.50;3.70;;;18.30;99.90;;;;;;4945776;28;20258;-74
2023/08/28 02:57:00;;;;;;;6.33;3.53;;;18.30;99.90;;;;;;4945426;28;20199;-74
2023/08/28 02:59:27;;;;;;;4.00;3.40;;;18.30;99.90;;;;;;4943867;28;20192;-73
2023/08/28 03:01:53;;;;;;;3.63;3.33;;;18.30;99.90;;;;;;4941938;28;20446;-74
2023/08/28 03:04:18;;;;;;;3.47;3.00;;;18.30;99.90;;;;;;4941227;28;20485;-74
2023/08/28 03:06:44;;;;;;;3.60;3.10;;;18.30;99.90;;;;;;4940358;28;20214;-74
2023/08/28 03:09:09;;;;;;;6.40;3.20;;;18.30;99.90;;;;;;4942055;28;20187;-74
2023/08/28 03:11:35;;;;;;;7.23;3.97;;;18.30;99.90;;;;;;4939801;28;20187;-74
2023/08/28 03:14:02;;;;;;;4.33;3.03;;;18.40;99.90;;;;;;4940732;28;20255;-74
2023/08/28 03:16:28;;;;;;;6.53;3.37;;;18.40;99.90;;;;;;4942506;28;20192;-74
2023/08/28 03:18:54;;;;;;;5.10;3.37;;;18.40;99.90;;;;;;4942752;28;20451;-74
2023/08/28 03:21:19;;;;;;;4.90;3.13;;;18.40;99.90;;;;;;4939591;28;20212;-74
2023/08/28 03:23:45;;;;;;;3.03;2.73;;;18.40;99.90;;;;;;4942616;28;20648;-74
2023/08/28 03:26:10;;;;;;;4.13;3.13;;;18.40;99.90;;;;;;4940421;28;20307;-73
2023/08/28 03:28:36;;;;;;;3.43;2.90;;;18.40;99.90;;;;;;4946596;28;20307;-74
2023/08/28 03:31:02;;;;;;;5.17;3.37;;;18.40;99.90;;;;;;4944413;28;20195;-74
2023/08/28 03:33:28;;;;;;;4.53;3.17;;;18.40;99.90;;;;;;4940184;28;20219;-74
2023/08/28 03:35:53;;;;;;;5.50;3.17;;;18.40;99.90;;;;;;4942904;28;20214;-74
2023/08/28 03:38:19;;;;;;;4.70;2.97;;;18.40;99.90;;;;;;4944016;28;20187;-74
2023/08/28 03:40:46;;;;;;;5.90;3.60;;;18.40;99.90;;;;;;4943659;28;20187;-74
2023/08/28 03:43:12;;;;;;;5.00;3.43;;;18.40;99.90;;;;;;4941475;28;20210;-74
2023/08/28 03:45:38;;;;;;;4.83;3.00;;;18.40;99.90;;;;;;4943492;28;20443;-74
2023/08/28 03:48:05;;;;;;;4.53;3.17;;;18.40;99.90;;;;;;4946790;28;20419;-74
2023/08/28 03:50:30;;;;;;;4.03;2.60;;;18.30;99.90;;;;;;4939492;28;21024;-73
2023/08/28 03:52:56;;;;;;;3.50;3.10;;;18.30;99.90;;;;;;4940362;28;20582;-74
2023/08/28 03:55:23;;;;;;;5.37;2.67;;;18.30;99.90;;;;;;4941375;28;20211;-74
2023/08/28 03:57:49;;;;;;;3.63;3.33;;;18.30;99.90;;;;;;4942747;28;20435;-74
2023/08/28 04:00:15;;;;;;;4.17;2.60;;;18.30;99.90;;;;;;4939821;28;20455;-76
2023/08/28 04:02:41;;;;;;;4.17;2.97;;;18.30;99.90;;;;;;4941742;28;20793;-76
2023/08/28 04:05:07;;;;;;;4.03;2.37;;;18.30;99.90;;;;;;4942567;28;20976;-73
2023/08/28 04:07:34;;;;;;;5.03;2.30;;;18.30;99.90;;;;;;4942834;28;20776;-73
2023/08/28 04:09:59;;;;;;;3.27;2.70;;;18.30;99.90;;;;;;4940851;28;20799;-73
2023/08/28 04:12:25;;;;;;;6.10;3.50;;;18.30;99.90;;;;;;4939658;28;20465;-73
2023/08/28 04:14:51;;;;;;;3.77;2.83;;;18.30;99.90;;;;;;4939047;28;20217;-73
2023/08/28 04:17:16;;;;;;;5.00;2.93;;;18.30;99.90;;;;;;4942849;28;20435;-73
2023/08/28 04:19:43;;;;;;;5.40;3.07;;;18.30;99.90;;;;;;4938973;28;20324;-73
2023/08/28 04:22:08;;;;;;;3.03;2.43;;;18.30;99.90;;;;;;4940052;28;20993;-73
2023/08/28 04:24:34;;;;;;;4.20;2.97;;;18.30;99.90;;;;;;4939038;28;20562;-73
2023/08/28 04:26:59;;;;;;;5.30;2.77;;;18.30;99.90;;;;;;4943151;28;20311;-75
2023/08/28 04:29:25;;;;;;;4.63;2.90;;;18.30;99.90;;;;;;4938408;28;20199;-73
2023/08/28 04:31:52;;;;;;;5.23;3.17;;;18.20;99.90;;;;;;4942404;28;20184;-73
2023/08/28 04:34:18;;;;;;;5.87;3.37;;;18.20;99.90;;;;;;4941003;28;20468;-73
2023/08/28 04:36:43;;;;;;;4.23;3.17;;;18.20;99.90;;;;;;4942720;28;20465;-74
2023/08/28 04:39:09;;;;;;;6.47;3.70;;;18.30;99.90;;;;;;4940234;28;20706;-74
2023/08/28 04:41:34;;;;;;;4.13;3.40;;;18.20;99.90;;;;;;4944786;28;20191;-74
2023/08/28 04:44:00;;;;;;;3.80;3.20;;;18.20;99.90;;;;;;4940863;28;20557;-74
2023/08/28 04:46:26;;;;;;;4.17;3.77;;;18.20;99.90;;;;;;4940357;28;20794;-73
2023/08/28 04:48:51;;;;;;;4.40;3.80;;;18.30;99.90;;;;;;4943864;28;20664;-74
2023/08/28 04:51:17;;;;;;;5.03;3.70;;;18.30;99.90;;;;;;4939934;28;20435;-73
2023/08/28 04:53:42;;;;;;;5.43;3.70;;;18.30;99.90;;;;;;4941180;28;20656;-73
2023/08/28 04:56:08;;;;;;;4.53;3.30;;;18.30;99.90;;;;;;4945015;28;20210;-73
2023/08/28 04:58:34;;;;;;;4.23;3.33;;;18.30;99.90;;;;;;4942253;28;20281;-73
2023/08/28 05:01:00;;;;;;;4.50;3.17;;;18.20;99.90;;;;;;4937284;28;20183;-73
2023/08/28 05:03:26;;;;;;;4.07;3.23;;;18.20;99.90;;;;;;4940523;28;20501;-73
2023/08/28 05:05:52;;;;;;;5.53;3.50;;;18.20;99.90;;;;;;4938821;28;20563;-74
2023/08/28 05:08:17;;;;;;;3.70;2.57;;;18.30;99.90;;;;;;4940516;28;20684;-73
2023/08/28 05:10:43;;;;;;;5.87;4.17;;;18.30;99.90;;;;;;4940252;28;20659;-73
2023/08/28 05:13:08;;;;;;;3.23;2.87;;;18.30;99.90;;;;;;4939915;28;20225;-73
2023/08/28 05:15:35;;;;;;;8.37;4.40;;;18.30;99.90;;;;;;4941103;28;20207;-74
2023/08/28 05:18:00;;;;;;;3.67;3.20;;;18.30;99.90;;;;;;4938827;28;20667;-74
2023/08/28 05:20:26;;;;;;;5.90;3.30;;;18.30;99.90;;;;;;4937834;28;20431;-74
2023/08/28 05:22:51;;;;;;;3.97;3.10;;;18.30;99.90;;;;;;4939774;28;20663;-74
2023/08/28 05:25:17;;;;;;;5.17;3.43;;;18.30;99.90;;;;;;4938563;28;20222;-74
2023/08/28 05:27:43;;;;;;;3.67;3.00;;;18.30;99.90;;;;;;4937270;28;20935;-74
2023/08/28 05:30:09;;;;;;;6.00;3.47;;;18.30;99.90;;;;;;4934431;28;20196;-74
2023/08/28 05:32:35;;;;;;;4.43;3.30;;;18.30;99.90;;;;;;4935868;28;20195;-74
2023/08/28 05:35:00;;;;;;;3.50;3.10;;;18.40;99.90;;;;;;4936015;28;20467;-74
2023/08/28 05:37:26;;;;;;;5.20;3.30;;;18.40;99.90;;;;;;4942329;28;20187;-74
2023/08/28 05:39:52;;;;;;;3.80;3.10;;;18.40;99.90;;;;;;4937346;28;20203;-74
2023/08/28 05:42:18;;;;;;;6.07;3.87;;;18.40;99.90;;;;;;4935641;28;20196;-74
2023/08/28 05:44:45;;;;;;;5.10;3.57;;;18.40;99.90;;;;;;4942665;28;20513;-74
2023/08/28 05:47:11;;;;;;;3.67;3.17;;;18.40;99.90;;;;;;4940181;28;20188;-74
2023/08/28 05:49:37;;;;;;;6.67;3.50;;;18.40;99.90;;;;;;4941460;28;20988;-74
2023/08/28 05:52:03;;;;;;;3.70;3.20;;;18.40;99.90;;;;;;4939202;28;20529;-74
2023/08/28 05:54:29;;;;;;;4.80;4.30;;;18.50;99.90;;;;;;4940067;28;20215;-74
2023/08/28 05:56:55;;;;;;;3.63;3.20;;;18.50;99.90;;;;;;4941328;28;20481;-74
2023/08/28 05:59:20;;;;;;;4.97;3.77;;;18.50;99.90;;;;;;4934563;28;20302;-74
2023/08/28 06:01:46;;;;;;;4.87;3.83;;;18.50;99.90;;;;;;4939355;28;20185;-74
2023/08/28 06:04:12;;;;;;;5.10;3.50;;;18.40;99.90;;;;;;4940862;28;20215;-74
2023/08/28 06:06:41;;;;;;;4.17;3.50;;;18.40;99.90;;;;;;4940596;28;20685;-74
2023/08/28 06:09:07;;;;;;;3.83;3.43;;;18.40;99.90;;;;;;4941657;28;20238;-74
2023/08/28 06:11:33;;;;;;;5.00;3.50;;;18.40;99.90;;;;;;4936755;28;20447;-74
2023/08/28 06:13:59;;;;;;;4.40;3.77;;;18.40;99.90;;;;;;4941398;28;20931;-74
2023/08/28 06:16:25;;;;;;;4.87;3.33;;;18.50;99.90;;;;;;4938741;28;20243;-75
2023/08/28 06:18:51;;;;;;;5.57;3.57;;;18.50;99.90;;;;;;4937487;28;20434;-75
2023/08/28 06:21:16;;;;;;;3.80;3.40;;;18.40;99.90;;;;;;4935224;28;20194;-74
2023/08/28 06:23:42;;;;;;;4.93;3.90;;;18.40;99.90;;;;;;4938227;28;20214;-74
2023/08/28 06:26:07;;;;;;;5.13;3.97;;;18.40;99.90;;;;;;4940552;28;20215;-74
2023/08/28 06:28:33;;;;;;;10.70;4.83;;;18.40;99.90;;;;;;4940503;28;20206;-75
2023/08/28 06:31:02;;;;;;;5.20;3.73;;;18.40;99.90;;;;;;4936488;28;20220;-75
2023/08/28 06:33:28;;;;;;;5.83;4.20;;;18.40;99.90;;;;;;4938121;28;20446;-75
2023/08/28 06:35:54;;;;;;;4.90;4.00;;;18.40;99.90;;;;;;4934223;28;20476;-73
2023/08/28 06:38:19;;;;;;;4.20;3.80;;;18.40;99.90;;;;;;4937401;28;20206;-73
2023/08/28 06:40:50;;;;;;;6.20;4.70;;;18.40;99.90;;;;;;4936421;28;20592;-74
2023/08/28 06:43:16;;;;;;;5.40;4.30;;;18.40;99.90;;;;;;4936063;28;20214;-74
2023/08/28 06:45:42;;;;;;;5.40;4.10;;;18.30;99.90;;;;;;4937103;28;20460;-74
2023/08/28 06:48:08;;;;;;;4.90;4.13;;;18.30;99.90;;;;;;4936848;28;20257;-74
2023/08/28 06:50:34;;;;;;;6.50;4.10;;;18.30;99.90;;;;;;4934113;28;20692;-74
2023/08/28 06:53:00;;;;;;;7.30;4.70;;;18.20;99.90;;;;;;4939149;28;20179;-73
2023/08/28 06:55:27;;;;;;;9.33;4.60;;;18.30;99.90;;;;;;4938864;28;20477;-73
2023/08/28 06:57:53;;;;;;;5.83;4.30;;;18.20;99.90;;;;;;4954811;28;20196;-74
2023/08/28 07:00:19;;;;;;;4.30;3.83;;;18.20;99.90;;;;;;4933151;28;20975;-74
2023/08/28 07:02:45;;;;;;;7.47;4.03;;;18.20;99.90;;;;;;4940302;28;21172;-75
2023/08/28 07:05:10;;;;;;;5.80;4.57;;;18.20;99.90;;;;;;4941023;28;20953;-75
2023/08/28 07:07:36;;;;;;;5.00;4.30;;;18.10;99.90;;;;;;4935229;28;20187;-75
2023/08/28 07:10:02;;;;;;;4.80;3.80;;;18.10;99.90;;;;;;4941654;28;20839;-73
2023/08/28 07:12:28;;;;;;;5.53;4.03;;;18.10;99.90;;;;;;4935112;28;20211;-76
2023/08/28 07:15:17;;;;;;;7.60;5.70;;;18.10;99.90;;;;;;4939659;28;20972;-76
2023/08/28 07:17:43;;;;;;;8.10;5.60;;;18.20;99.90;;;;;;4940343;28;20191;-75
2023/08/28 07:20:09;;;;;;;6.60;4.80;;;18.20;99.90;;;;;;4940467;28;20445;-75
2023/08/28 07:22:35;;;;;;;7.13;4.20;;;18.20;99.90;;;;;;4938103;28;20679;-75
2023/08/28 07:25:01;;;;;;;4.60;3.10;;;18.30;99.90;;;;;;4943366;28;20581;-76
2023/08/28 07:27:26;;;;;;;7.30;3.97;;;18.30;99.90;;;;;;4944142;28;20183;-72
2023/08/28 07:29:52;;;;;;;4.53;3.40;;;18.30;99.90;;;;;;4942524;28;20219;-75
2023/08/28 07:32:18;;;;;;;5.43;3.27;;;18.30;99.90;;;;;;4941465;28;20439;-75
2023/08/28 07:34:44;;;;;;;6.17;3.33;;;18.30;99.90;;;;;;4940763;28;20795;-73
2023/08/28 07:37:09;;;;;;;7.27;4.63;;;18.30;99.90;;;;;;4945467;28;20941;-74
2023/08/28 07:39:35;;;;;;;4.70;3.53;;;18.30;99.90;;;;;;4941026;28;20211;-74
2023/08/28 07:42:01;;;;;;;6.33;4.10;;;18.30;99.90;;;;;;4943132;28;20728;-71
2023/08/28 07:44:26;;;;;;;6.00;4.40;;;18.30;99.90;;;;;;4941584;28;20813;-72
2023/08/28 07:46:52;;;;;;;5.13;4.27;;;18.30;99.90;;;;;;4941704;28;20271;-73
2023/08/28 07:49:18;;;;;;;5.60;4.23;;;18.30;99.90;;;;;;4943189;28;20194;-74
2023/08/28 07:51:44;;;;;;;7.60;6.80;;;18.30;99.90;;;;;;4941410;28;20279;-73
2023/08/28 07:54:11;;;;;;;5.47;4.10;;;18.40;99.90;;;;;;4939454;28;20924;-75
2023/08/28 07:56:37;;;;;;;5.37;4.20;;;18.40;99.90;;;;;;4936961;28;20530;-74
2023/08/28 07:59:04;;;;;;;4.60;3.57;;;18.50;99.90;;;;;;4942677;28;20534;-73
2023/08/28 08:01:30;;;;;;;4.60;3.23;;;18.50;99.90;;;;;;4944875;28;20242;-75
2023/08/28 08:03:56;;;;;;;4.57;3.50;;;18.50;99.90;;;;;;4941786;28;20886;-74
2023/08/28 08:06:22;;;;;;;4.37;3.10;;;18.50;99.90;;;;;;4945736;28;20431;-72
2023/08/28 08:08:48;;;;;;;5.00;3.30;;;18.60;99.90;;;;;;4944577;28;20270;-73
2023/08/28 08:11:14;;;;;;;3.57;3.00;;;18.60;99.90;;;;;;4939628;28;20428;-72
2023/08/28 08:13:39;;;;;;;5.60;3.80;;;18.60;99.90;;;;;;4938010;28;20196;-73
2023/08/28 08:16:05;;;;;;;6.20;3.37;;;18.70;99.90;;;;;;4940964;28;20978;-73
2023/08/28 08:18:31;;;;;;;6.17;4.57;;;18.60;99.90;;;;;;4941552;28;20191;-73
2023/08/28 08:20:57;;;;;;;5.63;3.40;;;18.70;99.90;;;;;;4945495;28;20282;-73
2023/08/28 08:23:23;;;;;;;5.97;3.43;;;18.70;99.90;;;;;;4941448;28;20204;-75
2023/08/28 08:25:49;;;;;;;4.40;2.83;;;18.70;99.90;;;;;;4938948;28;20249;-73
2023/08/28 08:28:17;;;;;;;4.50;2.90;;;18.70;99.90;;;;;;4939569;28;20811;-74
2023/08/28 08:30:42;;;;;;;4.37;2.83;;;18.70;99.90;;;;;;4942683;28;20873;-74
2023/08/28 08:33:08;;;;;;;8.93;3.40;;;18.70;99.90;;;;;;4943035;28;20523;-73
2023/08/28 08:35:37;;;;;;;4.87;3.57;;;18.80;99.90;;;;;;4942035;28;20285;-74
2023/08/28 08:38:02;;;;;;;5.07;3.50;;;18.80;99.90;;;;;;4943864;28;20195;-72
2023/08/28 08:40:28;;;;;;;6.90;3.47;;;18.80;99.90;;;;;;4942144;28;20453;-74
2023/08/28 08:42:54;;;;;;;5.00;4.50;;;18.80;99.90;;;;;;4942360;28;20270;-76
2023/08/28 08:45:24;;;;;;;4.73;3.07;;;18.80;99.90;;;;;;4939447;28;20237;-75
2023/08/28 08:47:53;;;;;;;3.70;3.27;;;18.80;99.90;;;;;;4942344;28;20824;-74
2023/08/28 08:50:20;;;;;;;4.13;3.57;;;18.80;99.90;;;;;;4941041;28;20443;-76
2023/08/28 08:52:47;;;;;;;6.30;3.30;;;18.80;99.90;;;;;;4943334;28;20942;-75
2023/08/28 08:55:34;;;;;;;3.83;3.27;;;18.80;99.90;;;;;;4953606;28;20466;-74
2023/08/28 08:58:04;;;;;;;5.47;4.00;;;18.80;99.90;;;;;;4941683;28;20434;-74
2023/08/28 09:00:31;;;;;;;6.30;4.37;;;18.80;99.90;;;;;;4941601;28;20439;-73
2023/08/28 09:02:58;;;;;;;9.43;3.43;;;18.80;99.90;;;;;;4941442;28;20843;-74
2023/08/28 09:05:24;;;;;;;3.37;3.00;;;18.80;99.90;;;;;;4938631;28;20487;-74
2023/08/28 09:07:50;;;;;;;3.97;3.27;;;18.80;99.90;;;;;;4942347;28;21068;-73
2023/08/28 09:10:16;;;;;;;4.73;3.30;;;18.80;99.90;;;;;;4938666;28;20214;-73
2023/08/28 09:12:42;;;;;;;4.60;3.43;;;18.90;99.90;;;;;;4940371;28;20466;-76
2023/08/28 09:15:10;;;;;;;5.40;3.00;;;18.90;99.90;;;;;;4940499;28;20234;-74
2023/08/28 09:17:41;;;;;;;6.87;3.60;;;18.90;99.90;;;;;;4939551;28;20438;-75
2023/08/28 09:20:14;;;;;;;4.90;3.13;;;18.90;99.90;;;;;;4942360;28;20489;-75
2023/08/28 09:22:48;;;;;;;5.07;3.00;;;19.00;99.90;;;;;;4934241;28;20440;-76
2023/08/28 09:25:15;;;;;;;3.60;2.90;;;19.00;99.90;;;;;;4940818;28;20479;-74
2023/08/28 09:27:43;;;;;;;3.20;2.87;;;19.10;99.90;;;;;;4941577;28;20497;-75
2023/08/28 09:30:32;;;;;;;3.30;3.00;;;19.10;99.90;;;;;;4944746;28;20434;-74
2023/08/28 09:33:00;;;;;;;6.37;3.17;;;19.10;99.90;;;;;;4941359;28;20473;-75
2023/08/28 09:35:27;;;;;;;4.93;3.03;;;19.20;99.90;;;;;;4937210;28;20510;-73
2023/08/28 09:38:01;;;;;;;4.47;2.90;;;19.20;99.90;;;;;;4943646;28;20565;-78
2023/08/28 09:40:39;;;;;;;5.50;2.77;;;19.20;99.90;;;;;;4939134;28;20534;-74
2023/08/28 09:43:12;;;;;;;3.50;2.97;;;19.20;99.90;;;;;;4941785;28;20439;-73
2023/08/28 09:45:38;;;;;;;4.07;2.90;;;19.30;99.90;;;;;;4940517;28;20469;-75
2023/08/28 09:48:05;;;;;;;6.67;3.47;;;19.40;99.90;;;;;;4941553;28;20427;-75
2023/08/28 09:50:32;;;;;;;6.23;3.27;;;19.40;99.90;;;;;;4937903;28;20195;-75
2023/08/28 09:53:09;;;;;;;8.30;2.70;;;19.50;99.90;;;;;;4944539;28;20443;-73
2023/08/28 09:55:51;;;;;;;3.40;2.90;;;19.60;99.90;;;;;;4937017;28;20466;-74
2023/08/28 09:58:18;;;;;;;3.80;3.17;;;19.60;99.90;;;;;;4932805;28;20451;-73
2023/08/28 10:00:44;;;;;;;5.30;4.57;;;19.60;99.90;;;;;;4938624;28;20455;-75
2023/08/28 10:03:13;;;;;;;6.47;3.67;;;19.70;99.90;;;;;;4933868;28;20416;-74
2023/08/28 10:05:40;;;;;;;4.27;3.60;;;19.80;99.90;;;;;;4939142;28;20458;-75
2023/08/28 10:08:07;;;;;;;7.20;3.33;;;19.90;99.90;;;;;;4943831;28;20419;-75
2023/08/28 10:10:34;;;;;;;3.60;2.70;;;20.00;99.90;;;;;;4932708;28;20522;-74
2023/08/28 10:13:03;;;;;;;3.73;2.63;;;20.00;99.90;;;;;;4941258;28;20438;-73
2023/08/28 10:15:31;;;;;;;4.40;2.60;;;20.20;99.90;;;;;;4941094;28;20489;-73
2023/08/28 10:18:00;;;;;;;4.33;2.80;;;20.20;99.90;;;;;;4936258;28;20789;-72
2023/08/28 10:20:28;;;;;;;4.60;3.10;;;20.20;99.90;;;;;;4937816;28;20438;-72
2023/08/28 10:22:55;;;;;;;5.17;3.10;;;20.20;99.90;;;;;;4932191;28;20578;-72
2023/08/28 10:25:22;;;;;;;4.00;3.03;;;20.30;99.90;;;;;;4933840;28;20548;-74
2023/08/28 10:27:48;;;;;;;4.00;2.80;;;20.40;99.90;;;;;;4939404;28;20945;-76
2023/08/28 10:30:15;;;;;;;3.27;2.30;;;20.50;99.90;;;;;;4934001;28;20451;-74
2023/08/28 10:32:42;;;;;;;3.33;2.80;;;20.60;99.90;;;;;;4935485;28;20439;-74
2023/08/28 10:35:10;;;;;;;4.20;2.70;;;20.60;99.90;;;;;;4940794;28;20579;-74
2023/08/28 10:37:38;;;;;;;4.10;2.83;;;20.70;99.90;;;;;;4940480;28;20497;-74
2023/08/28 10:40:05;;;;;;;6.70;2.80;;;20.70;99.90;;;;;;4937085;28;20917;-75
2023/08/28 10:42:31;;;;;;;4.33;2.70;;;20.80;99.90;;;;;;4935355;28;20881;-73
2023/08/28 10:44:57;;;;;;;5.00;3.43;;;21.00;99.90;;;;;;4941398;28;21442;-74
2023/08/28 10:47:23;;;;;;;12.37;4.73;;;21.00;99.90;;;;;;4941596;28;20789;-76
2023/08/28 10:49:54;;;;;;;5.00;3.90;;;21.10;99.90;;;;;;4939583;28;20451;-76
2023/08/28 10:52:20;;;;;;;8.53;7.63;;;21.10;99.90;;;;;;4935846;28;20191;-74
2023/08/28 10:54:46;;;;;;;4.80;2.93;;;21.20;99.90;;;;;;4942420;28;20720;-75
2023/08/28 10:57:28;;;;;;;6.83;2.80;;;21.20;99.90;;;;;;4943496;28;20202;-75
2023/08/28 10:59:54;;;;;;;3.87;3.00;;;21.20;99.90;;;;;;4944580;28;20194;-74
2023/08/28 11:02:21;;;;;;;4.30;3.07;;;21.30;99.90;;;;;;4944429;28;20793;-76
2023/08/28 11:04:47;;;;;;;4.27;2.70;;;21.40;99.90;;;;;;4940673;28;20613;-77
2023/08/28 11:07:21;;;;;;;5.47;3.83;;;21.40;99.90;;;;;;4940312;28;20438;-75
2023/08/28 11:09:51;;;;;;;3.40;3.10;;;21.50;99.90;;;;;;4941360;28;20810;-74
2023/08/28 11:12:19;;;;;;;4.20;3.00;;;21.50;99.90;;;;;;4944283;28;20485;-74
2023/08/28 11:14:51;;;;;;;3.80;2.67;;;21.60;99.90;;;;;;4937585;28;20466;-74
2023/08/28 11:17:18;;;;;;;8.33;2.63;;;21.60;99.90;;;;;;4950960;28;20510;-74
2023/08/28 11:20:11;;;;;;;2.77;2.30;;;21.70;99.90;;;;;;4942522;28;20811;-74
2023/08/28 11:22:45;;;;;;;6.30;3.90;;;21.70;99.90;;;;;;4939651;28;20973;-73
2023/08/28 11:25:39;;;;;;;4.10;2.93;;;21.80;99.90;;;;;;4937073;28;20529;-74
2023/08/28 11:28:22;;;;;;;6.13;3.23;;;21.70;99.90;;;;;;4937004;28;20569;-75
2023/08/28 11:30:48;;;;;;;5.33;2.90;;;21.80;99.90;;;;;;4942277;28;20450;-75
2023/08/28 11:33:14;;;;;;;5.67;3.10;;;21.70;99.90;;;;;;4942629;28;20455;-75
2023/08/28 11:35:39;;;;;;;7.03;3.53;;;21.80;99.90;;;;;;4946620;28;20211;-74
2023/08/28 11:38:05;;;;;;;5.20;3.27;;;21.90;99.90;;;;;;4940856;28;20203;-73
2023/08/28 11:40:31;;;;;;;5.70;3.50;;;21.90;99.90;;;;;;4947675;28;20442;-74
2023/08/28 11:43:06;;;;;;;4.60;3.03;;;21.90;99.90;;;;;;4952348;28;20191;-74
2023/08/28 11:45:32;;;;;;;7.13;4.00;;;21.90;99.90;;;;;;4958527;28;20211;-73
2023/08/28 11:48:04;;;;;;;4.00;3.03;;;22.00;99.90;;;;;;4962370;28;20447;-72
2023/08/28 11:50:30;;;;;;;5.40;3.33;;;21.90;99.90;;;;;;4958566;28;20198;-73
2023/08/28 11:52:55;;;;;;;3.70;3.00;;;22.00;99.90;;;;;;4951758;28;20453;-72
2023/08/28 11:55:21;;;;;;;8.40;4.70;;;22.10;99.90;;;;;;4947298;28;20466;-72
2023/08/28 11:57:49;;;;;;;2.70;2.33;;;22.00;99.90;;;;;;4943942;28;20673;-72
2023/08/28 12:00:16;;;;;;;2.97;2.60;;;22.10;99.90;;;;;;4941222;28;20195;-72
2023/08/28 12:02:47;;;;;;;6.43;2.80;;;22.10;99.90;;;;;;4940972;28;20517;-71
2023/08/28 12:05:15;;;;;;;3.53;2.63;;;22.00;99.90;;;;;;4942918;28;20529;-71
2023/08/28 12:07:45;;;;;;;2.67;2.40;;;22.00;99.90;;;;;;4943618;28;20442;-72
2023/08/28 12:10:16;;;;;;;3.73;2.70;;;21.90;99.90;;;;;;4948607;28;20435;-70
2023/08/28 12:12:42;;;;;;;3.00;2.53;;;21.80;99.90;;;;;;4944135;28;20454;-71
2023/08/28 12:15:09;;;;;;;2.90;2.60;;;21.80;99.90;;;;;;4943303;28;20525;-71
2023/08/28 12:17:37;;;;;;;3.47;2.77;;;21.80;99.90;;;;;;4937873;28;20443;-73
2023/08/28 12:20:06;;;;;;;3.87;3.10;;;21.80;99.90;;;;;;4946364;28;20500;-72
2023/08/28 12:22:34;;;;;;;3.37;2.80;;;21.80;99.90;;;;;;4940360;28;20431;-72
2023/08/28 12:24:59;;;;;;;4.13;3.70;;;21.80;99.90;;;;;;4941400;28;20479;-72
2023/08/28 12:27:27;;;;;;;5.33;4.20;;;21.90;99.90;;;;;;4942669;28;20503;-73
2023/08/28 12:29:56;;;;;;;8.93;3.93;;;21.80;99.90;;;;;;4938810;28;20179;-72
2023/08/28 12:32:22;;;;;;;5.60;3.60;;;21.70;99.90;;;;;;4949637;28;21024;-72
2023/08/28 12:34:48;;;;;;;3.60;3.20;;;21.50;99.90;;;;;;4941062;28;20462;-72
2023/08/28 12:37:14;;;;;;;5.83;4.00;;;21.40;99.90;;;;;;4941717;28;20949;-73
2023/08/28 12:39:51;;;;;;;6.60;3.40;;;21.40;99.90;;;;;;4937917;28;20903;-72
2023/08/28 12:42:18;;;;;;;4.97;4.00;;;21.40;99.90;;;;;;4942323;28;20856;-72
2023/08/28 12:44:44;;;;;;;3.40;3.10;;;21.50;99.90;;;;;;4941868;28;20553;-72
2023/08/28 12:47:14;;;;;;;3.63;3.33;;;21.50;99.90;;;;;;4944014;28;20537;-72
2023/08/28 12:49:40;;;;;;;3.53;2.60;;;21.40;99.90;;;;;;4938708;28;20211;-72